Ana Sayfa
METAR-TAF:

METAR-TAF

Havaalanları :

Bağdat Uluslararası Havaalanı

Bağdat, Irak

Enlem: 33-15-45N, Boylam: 44-14-04E, yükseklik: 35 m

Güncel hava durumu gözlemi

Rapor saat 00:00 UTC de 34 dakika önce yapıldı.
Rüzgar doğudan 8 kt
Sıcaklık 26°C
Nem 48%
Basınç 1013 hPa
Görüş mesafesi 10 km veya daha fazla
3000 ft yükseklikte parçalı bulutlu

METAR: ORBI 160000Z 09008KT 9999 SCT030 26/14 Q1013 NOSIG

Saat: 03:34 (00:34 UTC)

Tahmin

Rapor saat 23:00 UTC de 1 saat ve 34 dakika önce yapıldı.
Ayın 16'si saat 00 UTC'den ayın 16'si saat 24 UTC'ye kadar geçerli Tahmin
Rüzgar güney/güneydoğudan 6 kt
Görüş mesafesi: 8000 m
3000 ft yükseklikte parçalı bulutlu

TAF: ORBI 152300Z 1600/1624 15006KT 8000 SCT030

4.000'den fazla havaalanı için hava durumu gözlemleri ve tahminleri (METAR ve TAF raporları).

Kullanılabilir istasyonlar harita üzerinde sarı ve kırmızı noktalarla gösterilir.

İstasyonun adını görmek için fareyi noktanın üzerinde gezdirin.

Sonrasında hava gözlem ve tahminlerini görmek için tıklayın.

Haritayı değiştirmek için: yaklaştırmak için siyah artı işaretli yeşil düğmeye ve uzaklaştırmak için de eksi işaretli düğmeye hızla tıklayın; bitişik haritalar için yeşil okları kullanın.


METAR-TAF: